Time;durP1;ratioP1;P1;durP2;ratioP2;P2;SDS_P1;SDS_P2;PMS_P1;PMS_P2;Temp;Humidity;BMP_temperature;BMP_pressure;BME280_temperature;BME280_humidity;BME280_pressure;Samples;Min_cycle;Max_cycle;Signal;HPM_P1;HPM_P2
2021/03/13 00:00:33;;;;;;;1.25;0.50;;;6.20;99.90;;;;;;6151148;23;20021;-82
2021/03/13 00:03:01;;;;;;;5.93;0.93;;;6.30;99.90;;;;;;6134285;23;20076;-83
2021/03/13 00:05:33;;;;;;;0.90;0.38;;;6.30;99.90;;;;;;6154060;23;20018;-84
2021/03/13 00:08:02;;;;;;;0.35;0.30;;;6.30;99.90;;;;;;6128936;23;20005;-83
2021/03/13 00:10:31;;;;;;;1.42;0.32;;;6.30;99.90;;;;;;6129051;23;20028;-83
2021/03/13 00:13:02;;;;;;;0.77;0.37;;;6.30;99.90;;;;;;6150345;23;20020;-82
2021/03/13 00:15:29;;;;;;;0.80;0.47;;;6.30;99.90;;;;;;6150419;23;20310;-83
2021/03/13 00:17:58;;;;;;;0.82;0.40;;;6.20;99.90;;;;;;6128996;23;20035;-83
2021/03/13 00:20:28;;;;;;;1.77;0.55;;;6.20;99.90;;;;;;6124975;23;20047;-84
2021/03/13 00:22:58;;;;;;;4.38;0.50;;;6.20;99.90;;;;;;6124046;23;20329;-84
2021/03/13 00:25:28;;;;;;;3.75;0.60;;;6.20;99.90;;;;;;6148522;23;20025;-84
2021/03/13 00:27:57;;;;;;;2.33;0.90;;;6.30;99.90;;;;;;6152310;23;20081;-83
2021/03/13 00:30:29;;;;;;;1.40;0.55;;;6.30;99.90;;;;;;6153117;23;20017;-83
2021/03/13 00:33:05;;;;;;;;;;;6.30;99.90;;;;;;6153505;23;20025;-84
2021/03/13 00:35:33;;;;;;;3.72;0.70;;;6.30;99.90;;;;;;6127085;23;19916;-84
2021/03/13 00:38:02;;;;;;;3.33;0.40;;;6.40;99.90;;;;;;6151081;23;20021;-83
2021/03/13 00:40:31;;;;;;;1.20;0.13;;;6.40;99.90;;;;;;6126620;23;20247;-84
2021/03/13 00:42:59;;;;;;;1.73;0.50;;;6.40;99.90;;;;;;6153954;23;20018;-83
2021/03/13 00:45:29;;;;;;;0.90;0.57;;;6.40;99.90;;;;;;6177311;23;20013;-83
2021/03/13 00:47:58;;;;;;;1.95;0.60;;;6.40;99.90;;;;;;6151030;23;20027;-83
2021/03/13 00:50:28;;;;;;;1.77;0.40;;;6.40;99.90;;;;;;6152403;23;20028;-83
2021/03/13 00:52:56;;;;;;;2.45;0.73;;;6.40;99.90;;;;;;6152383;23;20032;-83
2021/03/13 00:55:24;;;;;;;3.85;0.70;;;6.40;99.90;;;;;;6154135;23;20018;-84
2021/03/13 00:57:58;;;;;;;1.92;0.52;;;6.40;99.90;;;;;;6129703;23;20021;-82
2021/03/13 01:00:28;;;;;;;1.55;0.50;;;6.40;99.90;;;;;;6153522;23;20017;-83
2021/03/13 01:02:55;;;;;;;3.60;0.68;;;6.40;99.90;;;;;;6129891;23;20026;-84
2021/03/13 01:05:26;;;;;;;3.22;0.85;;;6.40;99.90;;;;;;6129674;23;20032;-84
2021/03/13 01:07:54;;;;;;;1.85;0.60;;;6.40;99.90;;;;;;6155296;23;20005;-83
2021/03/13 01:10:27;;;;;;;0.95;0.50;;;6.40;99.90;;;;;;6174114;23;20021;-83
2021/03/13 01:12:55;;;;;;;2.40;0.50;;;6.40;99.90;;;;;;6143452;23;20028;-83
2021/03/13 01:15:24;;;;;;;1.73;0.55;;;6.30;99.90;;;;;;6148749;23;20022;-83
2021/03/13 01:17:55;;;;;;;3.25;0.60;;;6.40;99.90;;;;;;6125438;23;20021;-83
2021/03/13 01:20:24;;;;;;;1.85;0.70;;;6.40;99.90;;;;;;6150643;23;20032;-83
2021/03/13 01:22:53;;;;;;;1.73;0.40;;;6.40;99.90;;;;;;6148995;23;20026;-84
2021/03/13 01:25:21;;;;;;;3.50;0.77;;;6.40;99.90;;;;;;6125740;23;20017;-83
2021/03/13 01:27:49;;;;;;;1.63;0.33;;;6.40;99.90;;;;;;6148583;23;20021;-84
2021/03/13 01:30:20;;;;;;;2.75;0.55;;;6.40;99.90;;;;;;6126085;23;20018;-84
2021/03/13 01:32:50;;;;;;;1.23;0.55;;;6.50;99.90;;;;;;6128974;23;20028;-84
2021/03/13 01:35:19;;;;;;;2.08;0.40;;;6.50;99.90;;;;;;6130826;23;20018;-83
2021/03/13 01:37:47;;;;;;;0.85;0.40;;;6.50;99.90;;;;;;6126995;23;20021;-84
2021/03/13 01:40:15;;;;;;;0.63;0.30;;;6.50;99.90;;;;;;6152766;23;20031;-83
2021/03/13 01:42:44;;;;;;;3.67;0.60;;;6.50;99.90;;;;;;6151445;23;20017;-83
2021/03/13 01:45:18;;;;;;;1.60;0.47;;;6.50;99.90;;;;;;6153350;23;20026;-83
2021/03/13 01:47:48;;;;;;;1.75;0.50;;;6.50;99.90;;;;;;6157281;23;20017;-84
2021/03/13 01:50:21;;;;;;;1.20;0.32;;;6.60;99.90;;;;;;6132381;23;20069;-83
2021/03/13 01:52:51;;;;;;;4.10;0.63;;;6.50;99.90;;;;;;6156587;23;20021;-84
2021/03/13 01:55:21;;;;;;;2.90;0.45;;;6.50;99.90;;;;;;6131082;23;20014;-83
2021/03/13 01:57:56;;;;;;;6.72;1.00;;;6.50;99.90;;;;;;6154153;23;20045;-80
2021/03/13 02:00:27;;;;;;;2.92;0.55;;;6.50;99.90;;;;;;6157339;23;20061;-84
2021/03/13 02:02:58;;;;;;;1.20;0.40;;;6.50;99.90;;;;;;6157059;23;20002;-83
2021/03/13 02:05:37;;;;;;;2.50;0.43;;;6.50;99.90;;;;;;6157756;23;20006;-84
2021/03/13 02:08:12;;;;;;;3.00;0.75;;;6.50;99.90;;;;;;6157869;23;20053;-83
2021/03/13 02:10:50;;;;;;;2.58;0.60;;;6.50;99.90;;;;;;6109146;23;20069;-83
2021/03/13 02:13:24;;;;;;;4.05;1.33;;;6.50;99.90;;;;;;6130943;23;20025;-83
2021/03/13 02:16:04;;;;;;;1.35;0.40;;;6.40;99.90;;;;;;6131725;23;20073;-83
2021/03/13 02:18:45;;;;;;;1.27;0.50;;;6.40;99.90;;;;;;6129109;23;20031;-83
2021/03/13 02:21:20;;;;;;;2.42;0.52;;;6.40;99.90;;;;;;6130367;23;20021;-83
2021/03/13 02:24:12;;;;;;;2.55;0.68;;;6.30;99.90;;;;;;6127197;23;20026;-83
2021/03/13 02:26:54;;;;;;;1.35;0.98;;;6.30;99.90;;;;;;6127268;23;20005;-83
2021/03/13 02:29:42;;;;;;;1.92;0.98;;;6.30;99.90;;;;;;6126701;23;20014;-81
2021/03/13 02:32:20;;;;;;;;;;;6.20;99.90;;;;;;6158071;23;20052;-83
2021/03/13 02:34:51;;;;;;;2.88;0.90;;;6.20;99.90;;;;;;6157266;23;19952;-84
2021/03/13 02:37:24;;;;;;;1.40;0.70;;;6.20;99.90;;;;;;6128642;23;20021;-83
2021/03/13 02:39:56;;;;;;;1.38;0.50;;;6.20;99.90;;;;;;6132862;23;20080;-82
2021/03/13 02:42:26;;;;;;;1.15;0.60;;;6.20;99.90;;;;;;6131426;23;20229;-83
2021/03/13 02:44:56;;;;;;;0.35;0.10;;;6.20;99.90;;;;;;6152203;23;20032;-83
2021/03/13 02:47:30;;;;;;;1.58;0.55;;;6.30;99.90;;;;;;6126246;23;20032;-84
2021/03/13 02:50:04;;;;;;;0.47;0.30;;;6.20;99.90;;;;;;6151742;23;20022;-84
2021/03/13 02:52:43;;;;;;;0.90;0.40;;;6.20;99.90;;;;;;6129425;23;20017;-84
2021/03/13 02:55:15;;;;;;;2.60;0.60;;;6.20;99.90;;;;;;6127427;23;20426;-84
2021/03/13 02:57:48;;;;;;;1.05;0.60;;;6.10;99.90;;;;;;6123702;23;20031;-84
2021/03/13 03:00:20;;;;;;;1.52;0.63;;;6.10;99.90;;;;;;6147634;23;20026;-84
2021/03/13 03:02:53;;;;;;;0.85;0.55;;;6.10;99.90;;;;;;6171255;23;20031;-84
2021/03/13 03:05:26;;;;;;;2.67;0.55;;;6.20;99.90;;;;;;6173429;23;20014;-83
2021/03/13 03:07:55;;;;;;;1.17;0.57;;;6.10;99.90;;;;;;6176263;23;20032;-83
2021/03/13 03:10:28;;;;;;;3.45;0.68;;;6.20;99.90;;;;;;6175505;23;20022;-83
2021/03/13 03:12:57;;;;;;;2.13;0.60;;;6.20;99.90;;;;;;6149737;23;20022;-83
2021/03/13 03:15:30;;;;;;;2.95;1.10;;;6.20;99.90;;;;;;6153469;23;20017;-84
2021/03/13 03:18:01;;;;;;;2.55;0.60;;;6.20;99.90;;;;;;6153887;23;20025;-83
2021/03/13 03:20:32;;;;;;;1.67;0.63;;;6.20;99.90;;;;;;6152181;23;20018;-83
2021/03/13 03:23:01;;;;;;;1.17;0.43;;;6.20;99.90;;;;;;6153655;23;20021;-83
2021/03/13 03:25:29;;;;;;;0.80;0.40;;;6.30;99.90;;;;;;6173818;23;20049;-83
2021/03/13 03:27:56;;;;;;;0.50;0.20;;;6.30;99.90;;;;;;6154612;23;20021;-84
2021/03/13 03:30:37;;;;;;;1.88;0.30;;;6.30;99.90;;;;;;6152017;23;20021;-83
2021/03/13 03:33:06;;;;;;;0.68;0.38;;;6.30;99.90;;;;;;6176193;23;20043;-83
2021/03/13 03:35:38;;;;;;;2.08;0.50;;;6.30;99.90;;;;;;6153274;23;20017;-84
2021/03/13 03:38:08;;;;;;;0.65;0.30;;;6.30;99.90;;;;;;6153688;23;20029;-83
2021/03/13 03:40:36;;;;;;;4.23;0.70;;;6.40;99.90;;;;;;6178621;23;20422;-83
2021/03/13 03:43:14;;;;;;;1.15;0.43;;;6.30;99.90;;;;;;6178298;23;20256;-84
2021/03/13 03:45:50;;;;;;;2.63;0.50;;;6.30;99.90;;;;;;6154892;23;20061;-83
2021/03/13 03:48:20;;;;;;;0.70;0.40;;;6.20;99.90;;;;;;6155480;23;20028;-84
2021/03/13 03:50:53;;;;;;;3.05;0.50;;;6.20;99.90;;;;;;6154168;23;20011;-83
2021/03/13 03:53:35;;;;;;;2.25;0.68;;;6.20;99.90;;;;;;6157743;23;20013;-83
2021/03/13 03:56:04;;;;;;;1.85;0.60;;;6.10;99.90;;;;;;6158287;23;20065;-83
2021/03/13 03:58:34;;;;;;;;;;;6.00;99.90;;;;;;6151098;23;20043;-83
2021/03/13 04:01:05;;;;;;;0.98;0.50;;;6.00;99.90;;;;;;6150559;23;19926;-83
2021/03/13 04:03:34;;;;;;;6.00;0.65;;;6.00;99.90;;;;;;6153676;23;20017;-83
2021/03/13 04:06:03;;;;;;;3.17;0.70;;;5.90;99.90;;;;;;6156176;23;20027;-83
2021/03/13 04:08:32;;;;;;;4.30;0.70;;;5.90;99.90;;;;;;6155340;23;20017;-83
2021/03/13 04:11:01;;;;;;;2.53;0.52;;;5.80;99.90;;;;;;6129374;23;20025;-83
2021/03/13 04:13:30;;;;;;;1.67;0.75;;;5.70;99.90;;;;;;6178029;23;20028;-83
2021/03/13 04:15:58;;;;;;;1.23;0.55;;;5.70;99.90;;;;;;6157302;23;20065;-83
2021/03/13 04:18:27;;;;;;;0.73;0.50;;;5.70;99.90;;;;;;6158107;23;20061;-84
2021/03/13 04:20:55;;;;;;;2.90;1.13;;;5.70;99.90;;;;;;6182848;23;20027;-83
2021/03/13 04:23:23;;;;;;;2.38;0.93;;;5.70;99.90;;;;;;6182610;23;20077;-84
2021/03/13 04:25:53;;;;;;;3.53;1.10;;;5.80;99.90;;;;;;6183796;23;20028;-84
2021/03/13 04:28:21;;;;;;;1.58;0.73;;;5.80;99.90;;;;;;6158518;23;20061;-83
2021/03/13 04:30:50;;;;;;;1.90;1.00;;;5.80;99.90;;;;;;6181668;23;20001;-83
2021/03/13 04:33:18;;;;;;;;;;;5.80;99.90;;;;;;6158580;23;20024;-82
2021/03/13 04:35:48;;;;;;;1.83;0.90;;;5.80;99.90;;;;;;6181466;23;19917;-82
2021/03/13 04:38:17;;;;;;;3.05;0.98;;;5.80;99.90;;;;;;6182179;23;20021;-82
2021/03/13 04:40:46;;;;;;;4.47;1.15;;;5.70;99.90;;;;;;6182777;23;20081;-83
2021/03/13 04:43:15;;;;;;;3.83;1.15;;;5.80;99.90;;;;;;6157184;23;20096;-83
2021/03/13 04:45:43;;;;;;;3.55;1.17;;;5.70;99.90;;;;;;6156580;23;20020;-82
2021/03/13 04:48:12;;;;;;;2.55;1.25;;;5.70;99.90;;;;;;6155335;23;20017;-82
2021/03/13 04:50:41;;;;;;;6.47;1.20;;;5.70;99.90;;;;;;6181817;23;20065;-83
2021/03/13 04:53:10;;;;;;;1.80;0.98;;;5.80;99.90;;;;;;6159569;23;20085;-83
2021/03/13 04:55:38;;;;;;;1.83;1.08;;;5.90;99.90;;;;;;6158250;23;20434;-83
2021/03/13 04:58:06;;;;;;;3.08;1.52;;;6.00;99.90;;;;;;6182596;23;20072;-83
2021/03/13 05:00:34;;;;;;;2.92;1.50;;;6.00;99.90;;;;;;6158473;23;20061;-84
2021/03/13 05:03:02;;;;;;;2.00;1.40;;;6.00;99.90;;;;;;6157188;23;20049;-84
2021/03/13 05:05:33;;;;;;;2.80;1.58;;;6.00;99.90;;;;;;6182584;23;20045;-83
2021/03/13 05:08:02;;;;;;;4.97;2.03;;;6.10;99.90;;;;;;6135043;23;20405;-84
2021/03/13 05:10:30;;;;;;;3.50;1.50;;;6.10;99.90;;;;;;6134486;23;20077;-84
2021/03/13 05:12:58;;;;;;;4.43;1.60;;;6.00;99.90;;;;;;6157666;23;20096;-83
2021/03/13 05:15:26;;;;;;;2.25;1.05;;;6.10;99.90;;;;;;6157784;23;20057;-83
2021/03/13 05:17:54;;;;;;;3.22;1.23;;;6.00;99.90;;;;;;6155256;23;20025;-84
2021/03/13 05:20:23;;;;;;;6.03;1.48;;;6.00;99.90;;;;;;6153924;23;20017;-84
2021/03/13 05:22:51;;;;;;;5.25;1.35;;;6.10;99.90;;;;;;6151647;23;20031;-83
2021/03/13 05:25:20;;;;;;;3.28;1.38;;;6.10;99.90;;;;;;6152796;23;20036;-84
2021/03/13 05:27:48;;;;;;;1.42;0.70;;;6.10;99.90;;;;;;6148534;23;20040;-83
2021/03/13 05:30:17;;;;;;;4.45;1.45;;;6.10;99.90;;;;;;6148941;23;20471;-83
2021/03/13 05:32:45;;;;;;;;;;;6.20;99.90;;;;;;6121224;23;20036;-82
2021/03/13 05:35:13;;;;;;;2.25;1.08;;;6.20;99.90;;;;;;6155745;23;19916;-83
2021/03/13 05:37:41;;;;;;;3.08;0.95;;;6.30;99.90;;;;;;6158228;23;20077;-83
2021/03/13 05:40:10;;;;;;;2.13;1.13;;;6.30;99.90;;;;;;6132701;23;20100;-83
2021/03/13 05:42:39;;;;;;;3.55;1.15;;;6.30;99.90;;;;;;6154181;23;20076;-83
2021/03/13 05:45:09;;;;;;;;;;;6.40;99.90;;;;;;6154515;23;20025;-83
2021/03/13 05:47:38;;;;;;;2.78;1.02;;;6.40;99.90;;;;;;6154059;23;19923;-83
2021/03/13 05:50:08;;;;;;;2.78;1.30;;;6.50;99.90;;;;;;6173102;23;20025;-83
2021/03/13 05:52:37;;;;;;;2.65;1.25;;;6.50;99.90;;;;;;6145898;23;20022;-82
2021/03/13 05:55:07;;;;;;;2.83;1.38;;;6.50;99.90;;;;;;6126348;23;20028;-83
2021/03/13 05:57:35;;;;;;;2.75;1.50;;;6.50;99.90;;;;;;6132561;23;20067;-83
2021/03/13 06:00:06;;;;;;;3.05;1.30;;;6.50;99.90;;;;;;6180477;23;20045;-83
2021/03/13 06:02:41;;;;;;;7.80;1.83;;;6.50;99.90;;;;;;6110258;23;20057;-83
2021/03/13 06:05:10;;;;;;;4.35;1.58;;;6.50;99.90;;;;;;6132280;23;20015;-83
2021/03/13 06:07:39;;;;;;;5.47;1.73;;;6.50;99.90;;;;;;6157400;23;20062;-83
2021/03/13 06:10:07;;;;;;;;;;;6.50;99.90;;;;;;6159056;23;20052;-83
2021/03/13 06:12:35;;;;;;;4.32;1.85;;;6.60;99.90;;;;;;6158654;23;19953;-83
2021/03/13 06:15:03;;;;;;;2.70;1.50;;;6.60;99.90;;;;;;6133705;23;20073;-83
2021/03/13 06:17:50;;;;;;;;;;;6.60;99.90;;;;;;6179058;23;20023;-83
2021/03/13 06:20:20;;;;;;;2.60;1.27;;;6.60;99.90;;;;;;6176058;23;19907;-83
2021/03/13 06:22:49;;;;;;;5.72;1.60;;;6.70;99.90;;;;;;6127774;23;20026;-83
2021/03/13 06:25:23;;;;;;;4.47;1.20;;;6.70;99.90;;;;;;6149541;23;20028;-83
2021/03/13 06:28:18;;;;;;;3.60;1.30;;;6.70;99.90;;;;;;6149490;23;20036;-83
2021/03/13 06:30:47;;;;;;;3.58;1.95;;;6.80;99.90;;;;;;6105937;23;20017;-83
2021/03/13 06:33:27;;;;;;;4.63;1.52;;;6.80;99.90;;;;;;6150307;23;20023;-83
2021/03/13 06:35:57;;;;;;;3.22;1.10;;;6.80;99.90;;;;;;6176404;23;20012;-84
2021/03/13 06:38:26;;;;;;;2.13;1.10;;;6.80;99.90;;;;;;6174292;23;20021;-83
2021/03/13 06:40:56;;;;;;;2.88;1.05;;;6.80;99.90;;;;;;6126326;23;20021;-83
2021/03/13 06:43:26;;;;;;;2.33;0.95;;;6.80;99.90;;;;;;6129040;23;20032;-83
2021/03/13 06:45:56;;;;;;;1.75;1.10;;;6.90;99.90;;;;;;6152636;23;20014;-82
2021/03/13 06:48:39;;;;;;;2.50;1.02;;;6.90;99.90;;;;;;6179741;23;20026;-83
2021/03/13 06:51:30;;;;;;;2.63;1.27;;;6.90;99.90;;;;;;6157932;23;20057;-82
2021/03/13 06:54:10;;;;;;;2.08;0.80;;;6.90;99.90;;;;;;6124326;23;20073;-83
2021/03/13 06:56:40;;;;;;;2.08;0.80;;;6.90;99.90;;;;;;6129801;23;20433;-83
2021/03/13 06:59:19;;;;;;;2.67;1.08;;;6.90;99.90;;;;;;6154561;23;20026;-83
2021/03/13 07:01:55;;;;;;;1.10;0.70;;;7.00;99.90;;;;;;6171070;23;20026;-83
2021/03/13 07:04:30;;;;;;;1.55;0.70;;;7.00;99.90;;;;;;6151339;23;20028;-83
2021/03/13 07:06:58;;;;;;;1.48;0.75;;;7.00;99.90;;;;;;6181857;23;20021;-83
2021/03/13 07:09:46;;;;;;;1.45;0.70;;;7.10;99.90;;;;;;6157056;23;20078;-84
2021/03/13 07:12:26;;;;;;;1.65;0.73;;;7.10;99.90;;;;;;6156348;23;20025;-83
2021/03/13 07:14:54;;;;;;;2.13;0.88;;;7.20;99.90;;;;;;6190155;23;20022;-82
2021/03/13 07:17:23;;;;;;;1.13;0.65;;;7.20;99.90;;;;;;6156640;23;20057;-83
2021/03/13 07:19:52;;;;;;;1.30;0.80;;;7.30;99.90;;;;;;6156082;23;20022;-83
2021/03/13 07:22:21;;;;;;;4.78;1.80;;;7.40;99.90;;;;;;6179634;23;20021;-83
2021/03/13 07:24:54;;;;;;;5.95;2.83;;;7.50;99.90;;;;;;6178578;23;20021;-83
2021/03/13 07:27:24;;;;;;;3.92;1.45;;;7.50;99.90;;;;;;6178552;23;20017;-83
2021/03/13 07:29:52;;;;;;;;;;;7.60;99.90;;;;;;6178310;23;20378;-83
2021/03/13 07:32:25;;;;;;;4.05;2.17;;;7.70;99.90;;;;;;6178490;23;20032;-83
2021/03/13 07:35:02;;;;;;;2.22;0.98;;;7.70;99.90;;;;;;6178298;23;20026;-83
2021/03/13 07:37:34;;;;;;;1.08;0.50;;;7.70;99.90;;;;;;6178437;23;20018;-83
2021/03/13 07:40:03;;;;;;;1.25;0.60;;;7.90;99.90;;;;;;6178449;23;20022;-84
2021/03/13 07:42:33;;;;;;;2.58;1.15;;;7.80;99.90;;;;;;6154120;23;20021;-83
2021/03/13 07:45:03;;;;;;;3.28;1.60;;;7.80;99.90;;;;;;6155443;23;20005;-81
2021/03/13 07:47:31;;;;;;;3.38;1.25;;;7.90;99.90;;;;;;6155428;23;20014;-83
2021/03/13 07:50:02;;;;;;;0.40;0.22;;;8.00;99.90;;;;;;6153244;23;20032;-83
2021/03/13 07:52:31;;;;;;;0.93;0.68;;;8.00;99.90;;;;;;6155956;23;20081;-84
2021/03/13 07:55:02;;;;;;;0.13;0.13;;;8.00;99.90;;;;;;6155967;23;20096;-83
2021/03/13 07:57:31;;;;;;;1.02;0.60;;;7.90;99.90;;;;;;6172013;23;20028;-83
2021/03/13 07:59:59;;;;;;;0.73;0.30;;;8.00;99.90;;;;;;6153878;23;20032;-83
2021/03/13 08:02:46;;;;;;;0.68;0.20;;;8.00;99.90;;;;;;6154913;23;20024;-83
2021/03/13 08:05:18;;;;;;;0.65;0.30;;;8.00;99.90;;;;;;6176218;23;20021;-83
2021/03/13 08:08:00;;;;;;;0.35;0.20;;;8.00;99.90;;;;;;6154599;23;20028;-83
2021/03/13 08:10:47;;;;;;;0.40;0.30;;;8.00;99.90;;;;;;6181203;23;20077;-83
2021/03/13 08:13:55;;;;;;;0.82;0.38;;;8.20;99.90;;;;;;6205848;23;20027;-83
2021/03/13 08:16:42;;;;;;;0.10;0.10;;;8.30;99.90;;;;;;6187469;23;20069;-84
2021/03/13 08:19:37;;;;;;;0.50;0.30;;;8.40;99.90;;;;;;6184888;23;20064;-84
2021/03/13 08:22:22;;;;;;;0.10;0.10;;;8.40;99.90;;;;;;6187370;23;20060;-84
2021/03/13 08:30:39;;;;;;;1.65;0.30;;;8.50;99.90;;;;;;6125946;23;20050;-86
2021/03/13 08:33:26;;;;;;;0.73;0.30;;;8.60;99.90;;;;;;6110368;23;20029;31
2021/03/13 08:35:54;;;;;;;0.00;0.00;;;8.60;99.90;;;;;;6179343;22;20040;-80
2021/03/13 08:38:55;;;;;;;0.35;0.30;;;8.70;99.90;;;;;;6133845;23;20024;-79
2021/03/13 08:44:31;;;;;;;0.85;0.35;;;8.80;99.90;;;;;;6202810;23;20001;-84
2021/03/13 09:24:57;;;;;;;1.65;0.60;;;9.20;99.90;;;;;;6207341;23;20025;-85
2021/03/13 09:27:26;;;;;;;1.00;0.50;;;9.20;99.90;;;;;;6208761;23;20013;-83
2021/03/13 09:29:55;;;;;;;0.68;0.20;;;9.20;99.90;;;;;;6208192;23;20021;-84
2021/03/13 09:32:28;;;;;;;2.22;0.63;;;9.30;99.90;;;;;;6184005;23;20027;-84
2021/03/13 09:34:56;;;;;;;3.20;0.43;;;9.30;99.90;;;;;;6147010;23;20036;-85
2021/03/13 09:37:27;;;;;;;2.60;0.50;;;9.40;99.90;;;;;;6182406;23;20069;-83
2021/03/13 09:57:36;;;;;;;6.78;0.55;;;9.60;99.90;;;;;;6187833;23;20025;-85
2021/03/13 10:00:07;;;;;;;5.57;0.98;;;9.50;99.90;;;;;;6189722;23;20013;-82
2021/03/13 10:02:46;;;;;;;2.50;0.63;;;9.60;99.90;;;;;;6188520;23;20061;-85
2021/03/13 10:05:16;;;;;;;1.88;0.80;;;9.60;99.90;;;;;;6164308;23;20056;-84
2021/03/13 10:07:46;;;;;;;4.95;0.43;;;9.70;99.90;;;;;;6167667;23;20013;-84
2021/03/13 10:10:16;;;;;;;2.30;0.70;;;9.70;99.90;;;;;;6166687;23;20009;-85
2021/03/13 10:12:47;;;;;;;1.52;0.73;;;9.70;99.90;;;;;;6158600;23;20104;-84
2021/03/13 10:15:20;;;;;;;3.90;0.50;;;9.70;99.90;;;;;;6158424;23;20061;-85
2021/03/13 10:17:53;;;;;;;1.25;0.55;;;9.80;99.90;;;;;;6182823;23;20065;-84
2021/03/13 10:20:22;;;;;;;1.00;0.65;;;9.80;99.90;;;;;;6157571;23;20073;-85
2021/03/13 10:22:50;;;;;;;;;;;9.80;99.90;;;;;;6182061;23;20024;-85
2021/03/13 10:25:18;;;;;;;0.47;0.35;;;9.80;99.90;;;;;;6183493;23;19944;-85
2021/03/13 10:27:48;;;;;;;0.80;0.50;;;9.90;99.90;;;;;;6193179;23;20009;-83
2021/03/13 10:30:17;;;;;;;2.17;0.90;;;10.00;99.90;;;;;;6158393;23;20060;-83
2021/03/13 10:32:51;;;;;;;0.85;0.35;;;10.00;99.90;;;;;;6187395;23;20096;-83
2021/03/13 10:35:22;;;;;;;3.53;0.77;;;10.00;99.90;;;;;;6187707;23;20057;-82
2021/03/13 10:37:51;;;;;;;0.80;0.30;;;10.00;99.90;;;;;;6162206;23;20065;-83
2021/03/13 10:40:37;;;;;;;0.93;0.40;;;10.10;99.90;;;;;;6163355;23;20053;-83
2021/03/13 10:46:13;;;;;;;1.85;0.65;;;10.20;99.90;;;;;;6241530;23;20076;-84
2021/03/13 10:49:02;;;;;;;2.20;0.63;;;10.20;99.90;;;;;;6214693;23;20099;-85
2021/03/13 10:51:31;;;;;;;1.77;0.55;;;10.20;99.90;;;;;;6237428;23;20016;-84
2021/03/13 10:54:02;;;;;;;1.20;0.28;;;10.40;99.90;;;;;;6214184;23;20009;-86
2021/03/13 10:56:44;;;;;;;11.00;2.55;;;10.30;99.90;;;;;;6239257;23;20012;-84
2021/03/13 10:59:15;;;;;;;1.10;0.47;;;10.40;99.90;;;;;;6213835;23;20038;-84
2021/03/13 11:01:47;;;;;;;3.13;1.23;;;10.50;99.90;;;;;;6213393;23;20039;-83
2021/03/13 11:04:15;;;;;;;0.95;0.30;;;10.50;99.90;;;;;;6213567;23;20079;-84
2021/03/13 11:06:52;;;;;;;0.70;0.30;;;10.40;99.90;;;;;;6241465;23;20011;-85
2021/03/13 11:09:23;;;;;;;2.67;0.50;;;10.50;99.90;;;;;;6216324;23;20076;-84
2021/03/13 11:11:51;;;;;;;1.52;0.30;;;10.30;99.90;;;;;;6240646;23;20096;-84
2021/03/13 11:14:22;;;;;;;13.60;0.93;;;10.40;99.90;;;;;;6216014;23;20084;-85
2021/03/13 11:16:51;;;;;;;1.60;1.10;;;10.50;99.90;;;;;;6242021;23;20072;-83
2021/03/13 11:19:26;;;;;;;0.40;0.22;;;10.50;99.90;;;;;;6216295;23;20072;-84
2021/03/13 11:21:54;;;;;;;9.10;0.52;;;10.60;99.90;;;;;;6216106;23;20064;-84
2021/03/13 11:24:25;;;;;;;0.90;0.40;;;10.70;99.40;;;;;;6214001;23;20027;-84
2021/03/13 11:26:57;;;;;;;3.97;0.55;;;10.80;99.10;;;;;;6216298;23;20017;-84
2021/03/13 11:29:25;;;;;;;3.25;0.30;;;11.00;98.50;;;;;;6240905;23;20092;-84
2021/03/13 11:31:56;;;;;;;1.60;0.50;;;11.20;97.10;;;;;;6191439;23;20068;-84
2021/03/13 11:40:23;;;;;;;12.82;0.55;;;11.80;94.60;;;;;;6205580;23;20361;-85
2021/03/13 11:43:00;;;;;;;9.88;0.80;;;11.50;94.50;;;;;;6163163;23;20049;-85
2021/03/13 11:45:44;;;;;;;;;;;;;;;;;;;;;
2021/03/13 11:48:18;;;;;;;;;;;11.40;93.40;;;;;;6188700;23;20007;-85
2021/03/13 11:50:48;;;;;;;0.82;0.20;;;11.60;92.60;;;;;;6153083;23;19905;-85
2021/03/13 11:53:22;;;;;;;3.17;0.20;;;11.50;93.20;;;;;;6158372;23;20057;-84
2021/03/13 11:55:53;;;;;;;10.38;0.50;;;11.40;93.60;;;;;;6190185;23;20013;-79
2021/03/13 11:58:25;;;;;;;19.63;1.30;;;11.30;94.50;;;;;;6135707;23;20058;-84
2021/03/13 12:00:53;;;;;;;11.15;1.00;;;11.50;93.70;;;;;;6135847;23;20065;-85
2021/03/13 12:03:22;;;;;;;1.13;0.60;;;11.60;93.50;;;;;;6159256;23;20076;-85
2021/03/13 12:05:50;;;;;;;2.15;0.50;;;11.50;93.60;;;;;;6135464;23;20061;-85
2021/03/13 12:08:35;;;;;;;7.13;2.25;;;11.60;94.00;;;;;;6158256;23;20021;-85
2021/03/13 12:11:03;;;;;;;9.77;1.23;;;11.50;94.20;;;;;;6135106;23;20061;-84
2021/03/13 12:13:32;;;;;;;2.45;0.60;;;11.50;93.70;;;;;;6159635;23;20049;-85
2021/03/13 12:15:59;;;;;;;4.30;0.40;;;11.50;94.10;;;;;;6135543;23;20053;-84
2021/03/13 12:18:42;;;;;;;9.75;1.40;;;11.50;93.80;;;;;;6134763;23;20056;31
2021/03/13 12:24:19;;;;;;;0.43;0.25;;;11.60;93.80;;;;;;6181152;23;20008;-84
2021/03/13 12:26:53;;;;;;;3.40;0.98;;;11.70;93.30;;;;;;6242037;23;20011;-85
2021/03/13 12:29:24;;;;;;;1.80;0.88;;;11.40;93.70;;;;;;6219142;23;20060;-83
2021/03/13 12:31:55;;;;;;;3.65;0.20;;;11.50;93.80;;;;;;6243462;23;20035;-84
2021/03/13 12:34:27;;;;;;;3.03;1.15;;;11.40;94.00;;;;;;6163224;23;20027;-83
2021/03/13 12:37:01;;;;;;;5.28;0.32;;;11.30;94.20;;;;;;6107037;23;20348;-80
2021/03/13 12:42:34;;;;;;;7.30;0.98;;;11.30;94.40;;;;;;6212408;23;20072;-85
2021/03/13 12:56:20;;;;;;;2.33;0.65;;;11.30;94.60;;;;;;6135336;23;20045;-84
2021/03/13 12:59:20;;;;;;;3.17;0.68;;;11.30;94.10;;;;;;6174224;23;20025;31
2021/03/13 13:01:51;;;;;;;4.70;0.68;;;11.20;94.00;;;;;;6101305;23;20058;-85
2021/03/13 13:04:30;;;;;;;5.93;0.95;;;11.00;95.20;;;;;;6077275;23;20054;-86
2021/03/13 13:10:14;;;;;;;7.72;0.80;;;11.10;95.80;;;;;;6178248;22;20004;-84
2021/03/13 14:44:20;;;;;;;;;;;;;;;;;;;;;
2021/03/13 14:47:01;;;;;;;1.13;0.40;;;6.20;99.90;;;;;;6172861;23;21149;-79
2021/03/13 15:17:49;;;;;;;1.02;0.30;;;6.70;99.90;;;;;;6235878;22;20008;-86
2021/03/13 15:20:29;;;;;;;4.95;0.75;;;6.40;99.90;;;;;;6192573;22;20230;-84
2021/03/13 15:23:12;;;;;;;0.40;0.17;;;6.30;99.90;;;;;;6197440;22;20035;-83
2021/03/13 15:25:44;;;;;;;0.43;0.43;;;6.30;99.90;;;;;;6217294;23;20017;-84
2021/03/13 15:28:15;;;;;;;1.88;0.38;;;6.30;99.90;;;;;;6158567;23;20069;-85
2021/03/13 15:30:43;;;;;;;1.35;0.30;;;6.30;99.90;;;;;;6167169;23;20013;-84
2021/03/13 15:33:17;;;;;;;1.10;0.60;;;6.50;99.90;;;;;;6183796;23;20073;-86
2021/03/13 15:38:37;;;;;;;1.90;0.40;;;6.50;99.90;;;;;;6167290;23;20225;-86
2021/03/13 15:41:14;;;;;;;0.77;0.30;;;6.60;99.90;;;;;;6182421;23;20838;-77
2021/03/13 15:43:46;;;;;;;0.52;0.20;;;6.70;99.90;;;;;;6202472;23;20028;-84
2021/03/13 15:46:27;;;;;;;1.25;0.60;;;6.80;99.90;;;;;;6165122;23;20064;-84
2021/03/13 15:48:56;;;;;;;0.82;0.38;;;6.80;99.90;;;;;;6180156;23;20031;-85
2021/03/13 15:51:28;;;;;;;0.55;0.30;;;7.10;99.90;;;;;;6189167;23;20065;-85
2021/03/13 15:54:07;;;;;;;0.20;0.10;;;7.20;99.90;;;;;;6212831;23;20072;-85
2021/03/13 15:56:40;;;;;;;1.17;0.38;;;7.30;99.90;;;;;;6187303;23;20072;-84
2021/03/13 15:59:09;;;;;;;1.42;0.60;;;7.50;99.90;;;;;;6188594;23;20072;-84
2021/03/13 16:01:38;;;;;;;1.20;0.30;;;7.60;99.90;;;;;;6213276;23;20112;-84
2021/03/13 16:04:11;;;;;;;1.52;0.50;;;7.80;99.90;;;;;;6211882;23;20092;-85
2021/03/13 16:06:47;;;;;;;5.00;0.57;;;7.90;99.90;;;;;;6188928;23;20081;-85
2021/03/13 16:09:18;;;;;;;0.55;0.32;;;8.00;99.90;;;;;;6189159;23;20012;-85
2021/03/13 16:11:48;;;;;;;0.95;0.40;;;8.00;99.90;;;;;;6187765;23;20080;-85
2021/03/13 16:14:20;;;;;;;2.83;0.70;;;8.10;99.90;;;;;;6174127;23;20017;-82
2021/03/13 16:16:51;;;;;;;2.67;0.28;;;8.10;99.90;;;;;;6168323;23;20016;-83
2021/03/13 16:19:31;;;;;;;;;;;8.30;99.90;;;;;;6184554;23;20077;-84
2021/03/13 16:22:06;;;;;;;5.22;1.63;;;8.30;99.90;;;;;;6173903;23;19948;-85
2021/03/13 16:24:36;;;;;;;1.83;0.47;;;8.30;99.90;;;;;;6149180;23;20016;-85
2021/03/13 16:27:09;;;;;;;1.23;0.32;;;8.40;99.90;;;;;;6105608;23;20053;-85
2021/03/13 16:29:44;;;;;;;;;;;8.50;99.90;;;;;;6106257;23;20058;-84
2021/03/13 16:32:20;;;;;;;3.40;1.08;;;8.50;99.90;;;;;;6104837;23;19941;-85
2021/03/13 16:34:59;;;;;;;3.60;0.60;;;8.50;99.90;;;;;;6105612;23;20587;-84
2021/03/13 16:37:29;;;;;;;3.67;0.82;;;8.50;99.90;;;;;;6105296;23;20053;-85
2021/03/13 16:39:58;;;;;;;1.77;0.70;;;8.40;99.90;;;;;;6128870;23;20024;-84
2021/03/13 16:42:40;;;;;;;0.82;0.50;;;8.40;99.90;;;;;;6129301;23;20070;-84
2021/03/13 16:50:50;;;;;;;1.50;0.32;;;8.30;99.90;;;;;;6108372;23;20021;-78
2021/03/13 17:02:49;;;;;;;0.40;0.30;;;8.20;99.90;;;;;;6189759;23;20062;-79
2021/03/13 17:05:42;;;;;;;4.43;1.17;;;8.10;99.90;;;;;;6138758;23;20026;-85
2021/03/13 17:14:12;;;;;;;2.17;0.60;;;8.10;99.90;;;;;;6198815;23;20013;-85
2021/03/13 17:19:40;;;;;;;8.07;2.45;;;8.10;99.90;;;;;;6175256;23;20031;-85
2021/03/13 17:22:15;;;;;;;1.63;0.68;;;8.10;99.90;;;;;;6135017;23;20064;-85
2021/03/13 17:39:02;;;;;;;1.50;0.70;;;8.20;99.90;;;;;;6167197;23;20006;-85
2021/03/13 17:41:39;;;;;;;4.15;1.10;;;8.20;99.90;;;;;;6134958;23;20077;-85